sensor_id;sensor_type;location;lat;lon;timestamp;P1;durP1;ratioP1;P2;durP2;ratioP2
18435;SDS011;9346;52.006;4.720;2023-06-22T00:02:21;11.77;;;6.23;;
18435;SDS011;9346;52.006;4.720;2023-06-22T00:04:49;8.07;;;5.70;;
18435;SDS011;9346;52.006;4.720;2023-06-22T00:07:17;7.10;;;5.40;;
18435;SDS011;9346;52.006;4.720;2023-06-22T00:09:44;8.00;;;5.90;;
18435;SDS011;9346;52.006;4.720;2023-06-22T00:12:13;6.20;;;5.57;;
18435;SDS011;9346;52.006;4.720;2023-06-22T00:14:42;9.83;;;5.97;;
18435;SDS011;9346;52.006;4.720;2023-06-22T00:17:09;8.33;;;6.27;;
18435;SDS011;9346;52.006;4.720;2023-06-22T00:19:35;9.50;;;5.50;;
18435;SDS011;9346;52.006;4.720;2023-06-22T00:22:05;9.03;;;5.23;;
18435;SDS011;9346;52.006;4.720;2023-06-22T00:24:32;9.57;;;5.90;;
18435;SDS011;9346;52.006;4.720;2023-06-22T00:26:59;8.37;;;5.97;;
18435;SDS011;9346;52.006;4.720;2023-06-22T00:29:29;9.03;;;5.20;;
18435;SDS011;9346;52.006;4.720;2023-06-22T00:31:56;8.17;;;5.40;;
18435;SDS011;9346;52.006;4.720;2023-06-22T00:34:24;10.47;;;6.73;;
18435;SDS011;9346;52.006;4.720;2023-06-22T00:36:52;8.97;;;5.10;;
18435;SDS011;9346;52.006;4.720;2023-06-22T00:39:19;9.13;;;6.33;;
18435;SDS011;9346;52.006;4.720;2023-06-22T00:41:47;8.80;;;5.10;;
18435;SDS011;9346;52.006;4.720;2023-06-22T00:44:15;8.13;;;5.37;;
18435;SDS011;9346;52.006;4.720;2023-06-22T00:46:44;8.57;;;5.83;;
18435;SDS011;9346;52.006;4.720;2023-06-22T00:49:11;8.53;;;6.03;;
18435;SDS011;9346;52.006;4.720;2023-06-22T00:51:38;13.20;;;5.47;;
18435;SDS011;9346;52.006;4.720;2023-06-22T00:54:12;7.90;;;5.10;;
18435;SDS011;9346;52.006;4.720;2023-06-22T00:56:40;8.63;;;6.00;;
18435;SDS011;9346;52.006;4.720;2023-06-22T00:59:08;7.63;;;5.50;;
18435;SDS011;9346;52.006;4.720;2023-06-22T01:01:44;9.43;;;6.00;;
18435;SDS011;9346;52.006;4.720;2023-06-22T01:04:13;8.27;;;6.07;;
18435;SDS011;9346;52.006;4.720;2023-06-22T01:06:43;11.30;;;6.17;;
18435;SDS011;9346;52.006;4.720;2023-06-22T01:09:20;10.70;;;6.70;;
18435;SDS011;9346;52.006;4.720;2023-06-22T01:11:53;9.97;;;6.37;;
18435;SDS011;9346;52.006;4.720;2023-06-22T01:14:27;9.67;;;6.43;;
18435;SDS011;9346;52.006;4.720;2023-06-22T01:17:01;10.10;;;5.83;;
18435;SDS011;9346;52.006;4.720;2023-06-22T01:19:40;9.10;;;6.63;;
18435;SDS011;9346;52.006;4.720;2023-06-22T01:22:12;9.23;;;6.47;;
18435;SDS011;9346;52.006;4.720;2023-06-22T01:24:47;8.73;;;6.97;;
18435;SDS011;9346;52.006;4.720;2023-06-22T01:27:26;13.77;;;8.37;;
18435;SDS011;9346;52.006;4.720;2023-06-22T01:30:02;10.93;;;7.67;;
18435;SDS011;9346;52.006;4.720;2023-06-22T01:32:32;11.97;;;8.03;;
18435;SDS011;9346;52.006;4.720;2023-06-22T01:35:03;11.53;;;7.83;;
18435;SDS011;9346;52.006;4.720;2023-06-22T01:37:34;13.53;;;8.60;;
18435;SDS011;9346;52.006;4.720;2023-06-22T01:40:02;11.83;;;7.77;;
18435;SDS011;9346;52.006;4.720;2023-06-22T01:42:32;17.20;;;9.13;;
18435;SDS011;9346;52.006;4.720;2023-06-22T01:45:02;11.07;;;8.07;;
18435;SDS011;9346;52.006;4.720;2023-06-22T01:47:32;11.10;;;7.73;;
18435;SDS011;9346;52.006;4.720;2023-06-22T01:50:01;13.97;;;9.37;;
18435;SDS011;9346;52.006;4.720;2023-06-22T01:52:28;13.73;;;9.27;;
18435;SDS011;9346;52.006;4.720;2023-06-22T01:54:58;13.83;;;9.23;;
18435;SDS011;9346;52.006;4.720;2023-06-22T01:57:26;12.80;;;8.60;;
18435;SDS011;9346;52.006;4.720;2023-06-22T01:59:57;14.23;;;9.73;;
18435;SDS011;9346;52.006;4.720;2023-06-22T02:02:31;14.70;;;9.27;;
18435;SDS011;9346;52.006;4.720;2023-06-22T02:05:05;15.97;;;9.63;;
18435;SDS011;9346;52.006;4.720;2023-06-22T02:07:37;14.70;;;9.93;;
18435;SDS011;9346;52.006;4.720;2023-06-22T02:10:08;15.53;;;10.73;;
18435;SDS011;9346;52.006;4.720;2023-06-22T02:12:38;15.30;;;10.87;;
18435;SDS011;9346;52.006;4.720;2023-06-22T02:15:09;15.80;;;10.43;;
18435;SDS011;9346;52.006;4.720;2023-06-22T02:17:40;19.87;;;11.63;;
18435;SDS011;9346;52.006;4.720;2023-06-22T02:20:12;18.43;;;12.73;;
18435;SDS011;9346;52.006;4.720;2023-06-22T02:22:39;16.83;;;11.73;;
18435;SDS011;9346;52.006;4.720;2023-06-22T02:25:07;17.23;;;11.67;;
18435;SDS011;9346;52.006;4.720;2023-06-22T02:27:35;18.07;;;11.87;;
18435;SDS011;9346;52.006;4.720;2023-06-22T02:30:06;18.70;;;12.40;;
18435;SDS011;9346;52.006;4.720;2023-06-22T02:32:35;17.33;;;11.37;;
18435;SDS011;9346;52.006;4.720;2023-06-22T02:35:09;19.10;;;11.93;;
18435;SDS011;9346;52.006;4.720;2023-06-22T02:37:37;17.50;;;11.10;;
18435;SDS011;9346;52.006;4.720;2023-06-22T02:40:08;17.07;;;11.43;;
18435;SDS011;9346;52.006;4.720;2023-06-22T02:42:35;19.93;;;12.20;;
18435;SDS011;9346;52.006;4.720;2023-06-22T02:45:05;19.87;;;12.77;;
18435;SDS011;9346;52.006;4.720;2023-06-22T02:47:33;16.90;;;12.03;;
18435;SDS011;9346;52.006;4.720;2023-06-22T02:50:03;14.43;;;10.67;;
18435;SDS011;9346;52.006;4.720;2023-06-22T02:52:33;15.60;;;11.57;;
18435;SDS011;9346;52.006;4.720;2023-06-22T02:55:03;18.27;;;11.53;;
18435;SDS011;9346;52.006;4.720;2023-06-22T02:57:32;21.30;;;12.37;;
18435;SDS011;9346;52.006;4.720;2023-06-22T02:59:59;19.70;;;11.57;;
18435;SDS011;9346;52.006;4.720;2023-06-22T03:02:26;17.30;;;11.87;;
18435;SDS011;9346;52.006;4.720;2023-06-22T03:04:53;16.67;;;12.33;;
18435;SDS011;9346;52.006;4.720;2023-06-22T03:07:21;18.17;;;11.97;;
18435;SDS011;9346;52.006;4.720;2023-06-22T03:09:50;16.17;;;11.57;;
18435;SDS011;9346;52.006;4.720;2023-06-22T03:12:18;20.03;;;11.80;;
18435;SDS011;9346;52.006;4.720;2023-06-22T03:14:47;17.20;;;12.40;;
18435;SDS011;9346;52.006;4.720;2023-06-22T03:17:14;21.03;;;13.00;;
18435;SDS011;9346;52.006;4.720;2023-06-22T03:19:42;19.80;;;12.53;;
18435;SDS011;9346;52.006;4.720;2023-06-22T03:22:12;20.60;;;12.67;;
18435;SDS011;9346;52.006;4.720;2023-06-22T03:24:40;19.13;;;12.47;;
18435;SDS011;9346;52.006;4.720;2023-06-22T03:27:11;18.83;;;12.33;;
18435;SDS011;9346;52.006;4.720;2023-06-22T03:29:38;16.53;;;11.97;;
18435;SDS011;9346;52.006;4.720;2023-06-22T03:32:07;15.60;;;11.77;;
18435;SDS011;9346;52.006;4.720;2023-06-22T03:34:34;18.37;;;12.10;;
18435;SDS011;9346;52.006;4.720;2023-06-22T03:37:02;18.43;;;12.57;;
18435;SDS011;9346;52.006;4.720;2023-06-22T03:39:31;18.53;;;12.83;;
18435;SDS011;9346;52.006;4.720;2023-06-22T03:41:58;20.10;;;13.03;;
18435;SDS011;9346;52.006;4.720;2023-06-22T03:44:28;19.53;;;13.40;;
18435;SDS011;9346;52.006;4.720;2023-06-22T03:46:54;18.73;;;12.20;;
18435;SDS011;9346;52.006;4.720;2023-06-22T03:49:22;22.93;;;13.47;;
18435;SDS011;9346;52.006;4.720;2023-06-22T03:51:49;19.63;;;12.40;;
18435;SDS011;9346;52.006;4.720;2023-06-22T03:54:16;18.10;;;12.00;;
18435;SDS011;9346;52.006;4.720;2023-06-22T03:56:44;20.07;;;13.17;;
18435;SDS011;9346;52.006;4.720;2023-06-22T03:59:12;16.97;;;12.03;;
18435;SDS011;9346;52.006;4.720;2023-06-22T04:01:42;19.63;;;12.80;;
18435;SDS011;9346;52.006;4.720;2023-06-22T04:04:11;17.40;;;12.20;;
18435;SDS011;9346;52.006;4.720;2023-06-22T04:06:39;19.70;;;12.53;;
18435;SDS011;9346;52.006;4.720;2023-06-22T04:09:06;19.13;;;11.63;;
18435;SDS011;9346;52.006;4.720;2023-06-22T04:11:35;20.13;;;12.23;;
18435;SDS011;9346;52.006;4.720;2023-06-22T04:14:05;22.37;;;13.70;;
18435;SDS011;9346;52.006;4.720;2023-06-22T04:16:33;18.00;;;12.37;;
18435;SDS011;9346;52.006;4.720;2023-06-22T04:19:04;16.93;;;12.57;;
18435;SDS011;9346;52.006;4.720;2023-06-22T04:21:31;22.13;;;13.50;;
18435;SDS011;9346;52.006;4.720;2023-06-22T04:23:59;17.20;;;11.80;;
18435;SDS011;9346;52.006;4.720;2023-06-22T04:26:27;20.03;;;12.47;;
18435;SDS011;9346;52.006;4.720;2023-06-22T04:28:55;16.37;;;11.90;;
18435;SDS011;9346;52.006;4.720;2023-06-22T04:31:22;18.67;;;12.23;;
18435;SDS011;9346;52.006;4.720;2023-06-22T04:33:57;17.83;;;11.80;;
18435;SDS011;9346;52.006;4.720;2023-06-22T04:36:32;20.30;;;12.77;;
18435;SDS011;9346;52.006;4.720;2023-06-22T04:39:03;18.53;;;11.73;;
18435;SDS011;9346;52.006;4.720;2023-06-22T04:41:31;19.47;;;12.80;;
18435;SDS011;9346;52.006;4.720;2023-06-22T04:44:06;16.00;;;11.33;;
18435;SDS011;9346;52.006;4.720;2023-06-22T04:46:34;18.63;;;11.07;;
18435;SDS011;9346;52.006;4.720;2023-06-22T04:49:03;18.03;;;11.47;;
18435;SDS011;9346;52.006;4.720;2023-06-22T04:51:40;17.63;;;11.43;;
18435;SDS011;9346;52.006;4.720;2023-06-22T04:54:09;14.60;;;10.80;;
18435;SDS011;9346;52.006;4.720;2023-06-22T04:56:37;16.23;;;9.90;;
18435;SDS011;9346;52.006;4.720;2023-06-22T04:59:06;15.27;;;9.97;;
18435;SDS011;9346;52.006;4.720;2023-06-22T05:01:38;13.93;;;9.90;;
18435;SDS011;9346;52.006;4.720;2023-06-22T05:04:05;11.20;;;8.47;;
18435;SDS011;9346;52.006;4.720;2023-06-22T05:06:32;14.87;;;10.03;;
18435;SDS011;9346;52.006;4.720;2023-06-22T05:09:02;14.00;;;10.20;;
18435;SDS011;9346;52.006;4.720;2023-06-22T05:11:30;11.47;;;8.63;;
18435;SDS011;9346;52.006;4.720;2023-06-22T05:13:57;17.17;;;9.93;;
18435;SDS011;9346;52.006;4.720;2023-06-22T05:16:25;11.40;;;9.07;;
18435;SDS011;9346;52.006;4.720;2023-06-22T05:18:52;12.23;;;9.17;;
18435;SDS011;9346;52.006;4.720;2023-06-22T05:21:24;13.53;;;9.37;;
18435;SDS011;9346;52.006;4.720;2023-06-22T05:23:53;14.43;;;9.40;;
18435;SDS011;9346;52.006;4.720;2023-06-22T05:26:22;14.70;;;9.93;;
18435;SDS011;9346;52.006;4.720;2023-06-22T05:28:51;13.23;;;9.23;;
18435;SDS011;9346;52.006;4.720;2023-06-22T05:31:18;14.17;;;9.70;;
18435;SDS011;9346;52.006;4.720;2023-06-22T05:33:46;14.10;;;9.70;;
18435;SDS011;9346;52.006;4.720;2023-06-22T05:36:15;12.10;;;9.13;;
18435;SDS011;9346;52.006;4.720;2023-06-22T05:38:44;13.20;;;9.13;;
18435;SDS011;9346;52.006;4.720;2023-06-22T05:41:13;14.70;;;9.77;;
18435;SDS011;9346;52.006;4.720;2023-06-22T05:43:44;12.90;;;8.73;;
18435;SDS011;9346;52.006;4.720;2023-06-22T05:46:11;13.67;;;8.57;;
18435;SDS011;9346;52.006;4.720;2023-06-22T05:48:38;11.27;;;8.60;;
18435;SDS011;9346;52.006;4.720;2023-06-22T05:51:06;10.77;;;8.30;;
18435;SDS011;9346;52.006;4.720;2023-06-22T05:53:33;12.13;;;8.47;;
18435;SDS011;9346;52.006;4.720;2023-06-22T05:56:00;12.63;;;8.27;;
18435;SDS011;9346;52.006;4.720;2023-06-22T05:58:27;14.13;;;9.17;;
18435;SDS011;9346;52.006;4.720;2023-06-22T06:00:56;10.70;;;8.80;;
18435;SDS011;9346;52.006;4.720;2023-06-22T06:03:25;12.07;;;8.97;;
18435;SDS011;9346;52.006;4.720;2023-06-22T06:05:53;13.57;;;9.40;;
18435;SDS011;9346;52.006;4.720;2023-06-22T06:08:21;11.23;;;8.70;;
18435;SDS011;9346;52.006;4.720;2023-06-22T06:10:50;14.83;;;9.43;;
18435;SDS011;9346;52.006;4.720;2023-06-22T06:13:20;12.60;;;9.30;;
18435;SDS011;9346;52.006;4.720;2023-06-22T06:15:47;12.03;;;9.43;;
18435;SDS011;9346;52.006;4.720;2023-06-22T06:18:21;13.93;;;9.40;;
18435;SDS011;9346;52.006;4.720;2023-06-22T06:20:48;12.83;;;9.47;;
18435;SDS011;9346;52.006;4.720;2023-06-22T06:23:15;13.40;;;9.70;;
18435;SDS011;9346;52.006;4.720;2023-06-22T06:25:42;13.00;;;8.90;;
18435;SDS011;9346;52.006;4.720;2023-06-22T06:28:10;15.97;;;9.77;;
18435;SDS011;9346;52.006;4.720;2023-06-22T06:30:37;16.57;;;10.20;;
18435;SDS011;9346;52.006;4.720;2023-06-22T06:33:06;12.33;;;9.33;;
18435;SDS011;9346;52.006;4.720;2023-06-22T06:35:35;12.03;;;9.50;;
18435;SDS011;9346;52.006;4.720;2023-06-22T06:38:03;12.97;;;9.93;;
18435;SDS011;9346;52.006;4.720;2023-06-22T06:40:32;12.07;;;8.90;;
18435;SDS011;9346;52.006;4.720;2023-06-22T06:42:59;16.70;;;10.33;;
18435;SDS011;9346;52.006;4.720;2023-06-22T06:45:26;14.13;;;10.03;;
18435;SDS011;9346;52.006;4.720;2023-06-22T06:47:56;13.13;;;9.10;;
18435;SDS011;9346;52.006;4.720;2023-06-22T06:50:24;13.97;;;9.60;;
18435;SDS011;9346;52.006;4.720;2023-06-22T06:52:54;13.60;;;9.33;;
18435;SDS011;9346;52.006;4.720;2023-06-22T06:55:24;11.43;;;8.30;;
18435;SDS011;9346;52.006;4.720;2023-06-22T06:57:51;11.23;;;7.97;;
18435;SDS011;9346;52.006;4.720;2023-06-22T07:00:19;10.73;;;8.53;;
18435;SDS011;9346;52.006;4.720;2023-06-22T07:02:47;10.40;;;8.43;;
18435;SDS011;9346;52.006;4.720;2023-06-22T07:05:15;10.73;;;7.73;;
18435;SDS011;9346;52.006;4.720;2023-06-22T07:07:42;12.10;;;8.20;;
18435;SDS011;9346;52.006;4.720;2023-06-22T07:10:11;11.00;;;8.17;;
18435;SDS011;9346;52.006;4.720;2023-06-22T07:12:40;11.27;;;7.77;;
18435;SDS011;9346;52.006;4.720;2023-06-22T07:15:08;15.67;;;8.70;;
18435;SDS011;9346;52.006;4.720;2023-06-22T07:17:40;11.70;;;8.10;;
18435;SDS011;9346;52.006;4.720;2023-06-22T07:20:09;9.27;;;6.93;;
18435;SDS011;9346;52.006;4.720;2023-06-22T07:22:38;12.53;;;7.07;;
18435;SDS011;9346;52.006;4.720;2023-06-22T07:25:06;9.23;;;6.67;;
18435;SDS011;9346;52.006;4.720;2023-06-22T07:27:42;10.43;;;6.77;;
18435;SDS011;9346;52.006;4.720;2023-06-22T07:30:11;9.10;;;6.43;;
18435;SDS011;9346;52.006;4.720;2023-06-22T07:32:40;11.90;;;8.03;;
18435;SDS011;9346;52.006;4.720;2023-06-22T07:35:07;9.47;;;6.73;;
18435;SDS011;9346;52.006;4.720;2023-06-22T07:37:36;10.80;;;7.30;;
18435;SDS011;9346;52.006;4.720;2023-06-22T07:40:06;9.03;;;6.63;;
18435;SDS011;9346;52.006;4.720;2023-06-22T07:42:35;14.33;;;7.97;;
18435;SDS011;9346;52.006;4.720;2023-06-22T07:45:04;9.37;;;7.43;;
18435;SDS011;9346;52.006;4.720;2023-06-22T07:47:33;11.23;;;7.57;;
18435;SDS011;9346;52.006;4.720;2023-06-22T07:50:01;12.90;;;8.20;;
18435;SDS011;9346;52.006;4.720;2023-06-22T07:52:29;12.13;;;8.60;;
18435;SDS011;9346;52.006;4.720;2023-06-22T07:54:58;11.23;;;8.57;;
18435;SDS011;9346;52.006;4.720;2023-06-22T07:57:27;15.33;;;9.07;;
18435;SDS011;9346;52.006;4.720;2023-06-22T07:59:58;14.37;;;9.33;;
18435;SDS011;9346;52.006;4.720;2023-06-22T08:02:32;12.93;;;8.63;;
18435;SDS011;9346;52.006;4.720;2023-06-22T08:05:00;11.67;;;8.67;;
18435;SDS011;9346;52.006;4.720;2023-06-22T08:07:27;13.97;;;9.10;;
18435;SDS011;9346;52.006;4.720;2023-06-22T08:09:54;13.30;;;10.10;;
18435;SDS011;9346;52.006;4.720;2023-06-22T08:12:30;13.53;;;10.17;;
18435;SDS011;9346;52.006;4.720;2023-06-22T08:14:58;15.67;;;11.73;;
18435;SDS011;9346;52.006;4.720;2023-06-22T08:17:25;15.13;;;11.30;;
18435;SDS011;9346;52.006;4.720;2023-06-22T08:19:55;17.77;;;12.20;;
18435;SDS011;9346;52.006;4.720;2023-06-22T08:22:24;16.70;;;11.97;;
18435;SDS011;9346;52.006;4.720;2023-06-22T08:24:52;14.97;;;10.27;;
18435;SDS011;9346;52.006;4.720;2023-06-22T08:27:19;15.47;;;10.67;;
18435;SDS011;9346;52.006;4.720;2023-06-22T08:29:48;16.97;;;12.40;;
18435;SDS011;9346;52.006;4.720;2023-06-22T08:32:16;17.57;;;12.67;;
18435;SDS011;9346;52.006;4.720;2023-06-22T08:34:44;15.27;;;11.47;;
18435;SDS011;9346;52.006;4.720;2023-06-22T08:37:13;21.33;;;13.97;;
18435;SDS011;9346;52.006;4.720;2023-06-22T08:39:40;18.10;;;12.97;;
18435;SDS011;9346;52.006;4.720;2023-06-22T08:42:08;18.33;;;12.80;;
18435;SDS011;9346;52.006;4.720;2023-06-22T08:44:36;18.50;;;13.20;;
18435;SDS011;9346;52.006;4.720;2023-06-22T08:47:04;16.90;;;12.63;;
18435;SDS011;9346;52.006;4.720;2023-06-22T08:49:31;16.50;;;12.83;;
18435;SDS011;9346;52.006;4.720;2023-06-22T08:51:59;15.17;;;11.33;;
18435;SDS011;9346;52.006;4.720;2023-06-22T08:54:28;12.73;;;10.77;;
18435;SDS011;9346;52.006;4.720;2023-06-22T08:56:59;16.43;;;11.93;;
18435;SDS011;9346;52.006;4.720;2023-06-22T08:59:27;12.90;;;10.23;;
18435;SDS011;9346;52.006;4.720;2023-06-22T09:01:54;12.77;;;9.83;;
18435;SDS011;9346;52.006;4.720;2023-06-22T09:04:22;16.53;;;10.63;;
18435;SDS011;9346;52.006;4.720;2023-06-22T09:06:48;12.17;;;10.53;;
18435;SDS011;9346;52.006;4.720;2023-06-22T09:09:17;15.43;;;10.50;;
18435;SDS011;9346;52.006;4.720;2023-06-22T09:11:47;14.13;;;10.00;;
18435;SDS011;9346;52.006;4.720;2023-06-22T09:14:14;11.77;;;9.50;;
18435;SDS011;9346;52.006;4.720;2023-06-22T09:16:41;14.33;;;10.13;;
18435;SDS011;9346;52.006;4.720;2023-06-22T09:19:09;12.43;;;9.23;;
18435;SDS011;9346;52.006;4.720;2023-06-22T09:21:37;13.30;;;9.73;;
18435;SDS011;9346;52.006;4.720;2023-06-22T09:24:05;9.93;;;7.83;;
18435;SDS011;9346;52.006;4.720;2023-06-22T09:26:34;10.30;;;7.17;;
18435;SDS011;9346;52.006;4.720;2023-06-22T09:29:03;9.73;;;8.20;;
18435;SDS011;9346;52.006;4.720;2023-06-22T09:31:31;10.60;;;8.20;;
18435;SDS011;9346;52.006;4.720;2023-06-22T09:33:59;10.67;;;8.00;;
18435;SDS011;9346;52.006;4.720;2023-06-22T09:36:26;7.87;;;6.27;;
18435;SDS011;9346;52.006;4.720;2023-06-22T09:38:53;9.27;;;7.43;;
18435;SDS011;9346;52.006;4.720;2023-06-22T09:41:23;10.90;;;7.57;;
18435;SDS011;9346;52.006;4.720;2023-06-22T09:43:51;8.73;;;6.93;;
18435;SDS011;9346;52.006;4.720;2023-06-22T09:46:20;10.30;;;7.40;;
18435;SDS011;9346;52.006;4.720;2023-06-22T09:48:50;11.00;;;8.10;;
18435;SDS011;9346;52.006;4.720;2023-06-22T09:51:18;9.93;;;7.90;;
18435;SDS011;9346;52.006;4.720;2023-06-22T09:53:46;9.37;;;6.87;;
18435;SDS011;9346;52.006;4.720;2023-06-22T09:56:14;13.43;;;7.47;;
18435;SDS011;9346;52.006;4.720;2023-06-22T09:58:41;12.07;;;7.77;;
18435;SDS011;9346;52.006;4.720;2023-06-22T10:01:10;9.63;;;7.37;;
18435;SDS011;9346;52.006;4.720;2023-06-22T10:03:38;8.00;;;6.80;;
18435;SDS011;9346;52.006;4.720;2023-06-22T10:06:06;8.40;;;7.00;;
18435;SDS011;9346;52.006;4.720;2023-06-22T10:08:34;6.27;;;4.90;;
18435;SDS011;9346;52.006;4.720;2023-06-22T10:11:02;9.03;;;5.63;;
18435;SDS011;9346;52.006;4.720;2023-06-22T10:13:29;7.10;;;5.33;;
18435;SDS011;9346;52.006;4.720;2023-06-22T10:15:57;6.77;;;5.00;;
18435;SDS011;9346;52.006;4.720;2023-06-22T10:18:25;6.70;;;4.80;;
18435;SDS011;9346;52.006;4.720;2023-06-22T10:20:55;8.03;;;6.03;;
18435;SDS011;9346;52.006;4.720;2023-06-22T10:23:22;8.20;;;6.50;;
18435;SDS011;9346;52.006;4.720;2023-06-22T10:25:50;7.47;;;6.33;;
18435;SDS011;9346;52.006;4.720;2023-06-22T10:28:17;6.80;;;5.50;;
18435;SDS011;9346;52.006;4.720;2023-06-22T10:30:45;8.03;;;6.27;;
18435;SDS011;9346;52.006;4.720;2023-06-22T10:33:12;6.70;;;5.97;;
18435;SDS011;9346;52.006;4.720;2023-06-22T10:35:40;6.47;;;5.50;;
18435;SDS011;9346;52.006;4.720;2023-06-22T10:38:10;7.10;;;6.23;;
18435;SDS011;9346;52.006;4.720;2023-06-22T10:40:38;7.77;;;5.93;;
18435;SDS011;9346;52.006;4.720;2023-06-22T10:43:05;5.93;;;4.67;;
18435;SDS011;9346;52.006;4.720;2023-06-22T10:45:33;6.80;;;6.13;;
18435;SDS011;9346;52.006;4.720;2023-06-22T10:48:01;6.70;;;6.10;;
18435;SDS011;9346;52.006;4.720;2023-06-22T10:50:29;6.20;;;5.60;;
18435;SDS011;9346;52.006;4.720;2023-06-22T10:52:57;7.27;;;5.40;;
18435;SDS011;9346;52.006;4.720;2023-06-22T10:55:28;7.10;;;5.90;;
18435;SDS011;9346;52.006;4.720;2023-06-22T10:57:55;7.57;;;5.70;;
18435;SDS011;9346;52.006;4.720;2023-06-22T11:00:22;6.57;;;5.27;;
18435;SDS011;9346;52.006;4.720;2023-06-22T11:02:50;8.83;;;6.57;;
18435;SDS011;9346;52.006;4.720;2023-06-22T11:05:18;6.60;;;5.90;;
18435;SDS011;9346;52.006;4.720;2023-06-22T11:07:45;7.87;;;6.37;;
18435;SDS011;9346;52.006;4.720;2023-06-22T11:10:14;9.57;;;7.00;;
18435;SDS011;9346;52.006;4.720;2023-06-22T11:12:44;10.73;;;8.23;;
18435;SDS011;9346;52.006;4.720;2023-06-22T11:15:12;11.23;;;9.40;;
18435;SDS011;9346;52.006;4.720;2023-06-22T11:17:39;9.93;;;7.83;;
18435;SDS011;9346;52.006;4.720;2023-06-22T11:20:07;11.77;;;9.33;;
18435;SDS011;9346;52.006;4.720;2023-06-22T11:22:35;11.43;;;8.80;;
18435;SDS011;9346;52.006;4.720;2023-06-22T11:25:04;12.47;;;9.37;;
18435;SDS011;9346;52.006;4.720;2023-06-22T11:27:33;14.80;;;9.70;;
18435;SDS011;9346;52.006;4.720;2023-06-22T11:30:02;11.00;;;8.40;;
18435;SDS011;9346;52.006;4.720;2023-06-22T11:32:32;11.23;;;8.40;;
18435;SDS011;9346;52.006;4.720;2023-06-22T11:35:00;10.60;;;7.93;;
18435;SDS011;9346;52.006;4.720;2023-06-22T11:37:28;10.80;;;8.33;;
18435;SDS011;9346;52.006;4.720;2023-06-22T11:39:55;16.17;;;9.10;;
18435;SDS011;9346;52.006;4.720;2023-06-22T11:42:23;13.67;;;10.07;;
18435;SDS011;9346;52.006;4.720;2023-06-22T11:44:51;13.20;;;10.20;;
18435;SDS011;9346;52.006;4.720;2023-06-22T11:47:20;12.17;;;10.27;;
18435;SDS011;9346;52.006;4.720;2023-06-22T11:49:49;15.67;;;12.13;;
18435;SDS011;9346;52.006;4.720;2023-06-22T11:52:16;14.60;;;11.57;;
18435;SDS011;9346;52.006;4.720;2023-06-22T11:54:44;14.70;;;12.27;;
18435;SDS011;9346;52.006;4.720;2023-06-22T11:57:12;15.63;;;12.17;;
18435;SDS011;9346;52.006;4.720;2023-06-22T11:59:40;14.33;;;12.23;;
18435;SDS011;9346;52.006;4.720;2023-06-22T12:02:08;17.30;;;12.33;;
18435;SDS011;9346;52.006;4.720;2023-06-22T12:04:38;14.90;;;11.73;;
18435;SDS011;9346;52.006;4.720;2023-06-22T12:07:04;16.03;;;13.23;;
18435;SDS011;9346;52.006;4.720;2023-06-22T12:09:31;17.00;;;13.00;;
18435;SDS011;9346;52.006;4.720;2023-06-22T12:11:59;16.30;;;12.43;;
18435;SDS011;9346;52.006;4.720;2023-06-22T12:14:26;18.37;;;13.23;;
18435;SDS011;9346;52.006;4.720;2023-06-22T12:16:53;18.53;;;14.27;;
18435;SDS011;9346;52.006;4.720;2023-06-22T12:19:21;18.00;;;12.43;;
18435;SDS011;9346;52.006;4.720;2023-06-22T12:21:50;16.83;;;13.43;;
18435;SDS011;9346;52.006;4.720;2023-06-22T12:24:17;18.10;;;13.20;;
18435;SDS011;9346;52.006;4.720;2023-06-22T12:26:44;18.67;;;14.03;;
18435;SDS011;9346;52.006;4.720;2023-06-22T12:29:13;18.20;;;13.50;;
18435;SDS011;9346;52.006;4.720;2023-06-22T12:31:41;20.17;;;13.70;;
18435;SDS011;9346;52.006;4.720;2023-06-22T12:34:09;18.27;;;14.00;;
18435;SDS011;9346;52.006;4.720;2023-06-22T12:36:36;18.17;;;14.13;;
18435;SDS011;9346;52.006;4.720;2023-06-22T12:39:06;19.60;;;12.80;;
18435;SDS011;9346;52.006;4.720;2023-06-22T12:41:33;15.40;;;13.33;;
18435;SDS011;9346;52.006;4.720;2023-06-22T12:44:00;20.20;;;13.93;;
18435;SDS011;9346;52.006;4.720;2023-06-22T12:46:28;18.13;;;13.57;;
18435;SDS011;9346;52.006;4.720;2023-06-22T12:49:01;22.63;;;14.13;;
18435;SDS011;9346;52.006;4.720;2023-06-22T12:51:29;20.73;;;13.97;;
18435;SDS011;9346;52.006;4.720;2023-06-22T12:53:56;15.00;;;13.00;;
18435;SDS011;9346;52.006;4.720;2023-06-22T12:56:25;16.13;;;12.60;;
18435;SDS011;9346;52.006;4.720;2023-06-22T12:58:52;22.80;;;14.73;;
18435;SDS011;9346;52.006;4.720;2023-06-22T13:01:19;21.97;;;14.40;;
18435;SDS011;9346;52.006;4.720;2023-06-22T13:03:48;17.27;;;14.57;;
18435;SDS011;9346;52.006;4.720;2023-06-22T13:06:16;17.83;;;13.80;;
18435;SDS011;9346;52.006;4.720;2023-06-22T13:08:43;19.00;;;14.23;;
18435;SDS011;9346;52.006;4.720;2023-06-22T13:11:11;16.27;;;13.30;;
18435;SDS011;9346;52.006;4.720;2023-06-22T13:13:40;17.63;;;13.60;;
18435;SDS011;9346;52.006;4.720;2023-06-22T13:16:07;19.97;;;15.30;;
18435;SDS011;9346;52.006;4.720;2023-06-22T13:18:35;17.57;;;13.73;;
18435;SDS011;9346;52.006;4.720;2023-06-22T13:21:02;18.13;;;13.43;;
18435;SDS011;9346;52.006;4.720;2023-06-22T13:23:30;18.80;;;14.10;;
18435;SDS011;9346;52.006;4.720;2023-06-22T13:25:59;19.13;;;14.13;;
18435;SDS011;9346;52.006;4.720;2023-06-22T13:28:27;17.77;;;13.70;;
18435;SDS011;9346;52.006;4.720;2023-06-22T13:30:57;18.77;;;14.00;;
18435;SDS011;9346;52.006;4.720;2023-06-22T13:33:24;18.17;;;13.73;;
18435;SDS011;9346;52.006;4.720;2023-06-22T13:35:52;20.63;;;14.17;;
18435;SDS011;9346;52.006;4.720;2023-06-22T13:38:19;18.53;;;13.93;;
18435;SDS011;9346;52.006;4.720;2023-06-22T13:40:47;16.30;;;13.50;;
18435;SDS011;9346;52.006;4.720;2023-06-22T13:43:16;18.93;;;14.13;;
18435;SDS011;9346;52.006;4.720;2023-06-22T13:45:45;19.43;;;14.27;;
18435;SDS011;9346;52.006;4.720;2023-06-22T13:48:15;17.43;;;14.37;;
18435;SDS011;9346;52.006;4.720;2023-06-22T13:50:44;19.43;;;14.23;;
18435;SDS011;9346;52.006;4.720;2023-06-22T13:53:12;19.53;;;14.20;;
18435;SDS011;9346;52.006;4.720;2023-06-22T13:55:41;18.63;;;14.00;;
18435;SDS011;9346;52.006;4.720;2023-06-22T13:58:07;18.07;;;13.77;;
18435;SDS011;9346;52.006;4.720;2023-06-22T14:00:35;17.40;;;13.37;;
18435;SDS011;9346;52.006;4.720;2023-06-22T14:03:02;15.40;;;11.93;;
18435;SDS011;9346;52.006;4.720;2023-06-22T14:05:32;13.57;;;11.37;;
18435;SDS011;9346;52.006;4.720;2023-06-22T14:07:59;13.30;;;11.13;;
18435;SDS011;9346;52.006;4.720;2023-06-22T14:10:26;13.23;;;10.43;;
18435;SDS011;9346;52.006;4.720;2023-06-22T14:12:53;11.20;;;9.83;;
18435;SDS011;9346;52.006;4.720;2023-06-22T14:15:21;11.63;;;8.77;;
18435;SDS011;9346;52.006;4.720;2023-06-22T14:17:48;10.53;;;9.10;;
18435;SDS011;9346;52.006;4.720;2023-06-22T14:20:16;11.53;;;8.87;;
18435;SDS011;9346;52.006;4.720;2023-06-22T14:22:48;9.33;;;7.30;;
18435;SDS011;9346;52.006;4.720;2023-06-22T14:25:15;10.20;;;7.53;;
18435;SDS011;9346;52.006;4.720;2023-06-22T14:27:43;8.67;;;7.13;;
18435;SDS011;9346;52.006;4.720;2023-06-22T14:30:12;10.53;;;7.33;;
18435;SDS011;9346;52.006;4.720;2023-06-22T14:32:40;10.20;;;6.60;;
18435;SDS011;9346;52.006;4.720;2023-06-22T14:35:10;9.10;;;6.67;;
18435;SDS011;9346;52.006;4.720;2023-06-22T14:37:37;10.40;;;7.40;;
18435;SDS011;9346;52.006;4.720;2023-06-22T14:40:08;8.47;;;7.57;;
18435;SDS011;9346;52.006;4.720;2023-06-22T14:42:38;10.70;;;6.90;;
18435;SDS011;9346;52.006;4.720;2023-06-22T14:45:05;7.87;;;6.47;;
18435;SDS011;9346;52.006;4.720;2023-06-22T14:47:33;8.37;;;6.73;;
18435;SDS011;9346;52.006;4.720;2023-06-22T14:50:01;6.93;;;5.77;;
18435;SDS011;9346;52.006;4.720;2023-06-22T14:52:29;6.73;;;5.50;;
18435;SDS011;9346;52.006;4.720;2023-06-22T14:54:58;8.93;;;6.33;;